Time;durP1;ratioP1;P1;durP2;ratioP2;P2;SDS_P1;SDS_P2;PMS_P1;PMS_P2;Temp;Humidity;BMP_temperature;BMP_pressure;BME280_temperature;BME280_humidity;BME280_pressure;Samples;Min_cycle;Max_cycle;Signal;HPM_P1;HPM_P2
2022/08/10 00:00:20;;;;;;;2.10;1.70;;;;;;;;;;5132713;27;20203;-57
2022/08/10 00:02:46;;;;;;;3.87;1.80;;;;;;;;;;5132801;28;20196;-57
2022/08/10 00:05:12;;;;;;;3.23;1.83;;;;;;;;;;5132463;28;20203;-57
2022/08/10 00:07:38;;;;;;;2.47;1.80;;;;;;;;;;5132310;28;20283;-57
2022/08/10 00:10:06;;;;;;;2.63;1.67;;;;;;;;;;5132503;27;20687;-57
2022/08/10 00:12:32;;;;;;;2.77;1.90;;;;;;;;;;5132427;27;20244;-57
2022/08/10 00:14:59;;;;;;;3.50;1.97;;;;;;;;;;5132557;28;20664;-57
2022/08/10 00:17:25;;;;;;;2.43;1.97;;;;;;;;;;5132374;27;20226;-57
2022/08/10 00:19:51;;;;;;;2.47;1.97;;;;;;;;;;5132491;28;20380;-57
2022/08/10 00:22:17;;;;;;;6.50;2.00;;;;;;;;;;5132513;28;20303;-57
2022/08/10 00:24:43;;;;;;;5.13;1.93;;;;;;;;;;5132293;28;20211;-57
2022/08/10 00:27:10;;;;;;;2.40;2.20;;;;;;;;;;5132375;28;20873;-57
2022/08/10 00:29:36;;;;;;;2.97;2.10;;;;;;;;;;5132233;28;20290;-57
2022/08/10 00:32:02;;;;;;;2.27;2.00;;;;;;;;;;5132316;28;20626;-57
2022/08/10 00:34:29;;;;;;;2.73;2.00;;;;;;;;;;5132325;27;20195;-57
2022/08/10 00:36:55;;;;;;;3.60;2.10;;;;;;;;;;5132084;27;20306;-57
2022/08/10 00:39:22;;;;;;;2.97;2.27;;;;;;;;;;5132130;27;20274;-57
2022/08/10 00:41:48;;;;;;;5.13;2.00;;;;;;;;;;5132399;28;20201;-57
2022/08/10 00:44:15;;;;;;;2.40;2.20;;;;;;;;;;5132220;28;20325;-57
2022/08/10 00:46:41;;;;;;;6.67;2.10;;;;;;;;;;5132317;28;20664;-57
2022/08/10 00:49:07;;;;;;;3.93;2.03;;;;;;;;;;5132201;28;20195;-57
2022/08/10 00:51:34;;;;;;;3.30;2.17;;;;;;;;;;5132079;28;20248;-57
2022/08/10 00:53:59;;;;;;;3.90;2.10;;;;;;;;;;5134940;27;20247;-57
2022/08/10 00:56:26;;;;;;;3.03;2.20;;;;;;;;;;5135963;27;20219;-57
2022/08/10 00:58:52;;;;;;;3.33;2.30;;;;;;;;;;5135898;27;20288;-57
2022/08/10 01:01:19;;;;;;;2.40;2.20;;;;;;;;;;5135930;27;20289;-57
2022/08/10 01:03:45;;;;;;;2.87;2.07;;;;;;;;;;5135833;27;20562;-57
2022/08/10 01:06:14;;;;;;;2.43;2.10;;;;;;;;;;5135687;27;20197;-57
2022/08/10 01:08:43;;;;;;;2.43;2.10;;;;;;;;;;5135360;27;20226;-57
2022/08/10 01:11:13;;;;;;;3.30;2.33;;;;;;;;;;5135646;27;20233;-57
2022/08/10 01:13:43;;;;;;;2.60;2.10;;;;;;;;;;5135507;27;20198;-57
2022/08/10 01:16:13;;;;;;;3.13;2.13;;;;;;;;;;5135518;27;20204;-57
2022/08/10 01:18:43;;;;;;;3.80;2.57;;;;;;;;;;5135431;27;20304;-57
2022/08/10 01:21:24;;;;;;;4.60;2.30;;;;;;;;;;5135577;27;20895;-57
2022/08/10 01:24:04;;;;;;;2.43;2.20;;;;;;;;;;5135285;27;20199;-57
2022/08/10 01:26:37;;;;;;;3.53;2.20;;;;;;;;;;5135350;27;20294;-57
2022/08/10 01:29:27;;;;;;;3.37;2.40;;;;;;;;;;5135382;27;20277;-57
2022/08/10 01:31:57;;;;;;;3.83;2.30;;;;;;;;;;5109640;27;20198;-57
2022/08/10 01:34:25;;;;;;;2.47;2.20;;;;;;;;;;5135141;27;20267;-57
2022/08/10 01:36:52;;;;;;;3.60;2.40;;;;;;;;;;5134961;27;20676;-57
2022/08/10 01:39:21;;;;;;;3.20;2.27;;;;;;;;;;5135142;27;20293;-57
2022/08/10 01:41:50;;;;;;;3.87;2.30;;;;;;;;;;5135328;27;20206;-57
2022/08/10 01:44:18;;;;;;;3.10;2.73;;;;;;;;;;5135046;27;20576;-57
2022/08/10 01:46:46;;;;;;;2.67;2.17;;;;;;;;;;5134935;27;20276;-57
2022/08/10 01:49:15;;;;;;;3.03;2.20;;;;;;;;;;5135021;27;20202;-57
2022/08/10 01:51:43;;;;;;;2.20;2.00;;;;;;;;;;5134831;27;20222;-57
2022/08/10 01:54:10;;;;;;;2.73;2.17;;;;;;;;;;5134767;27;20271;-57
2022/08/10 01:56:38;;;;;;;2.90;2.17;;;;;;;;;;5134615;27;20274;-57
2022/08/10 01:59:06;;;;;;;2.40;2.20;;;;;;;;;;5134838;27;20205;-57
2022/08/10 02:01:36;;;;;;;3.43;2.30;;;;;;;;;;5134636;27;20198;-57
2022/08/10 02:04:03;;;;;;;2.90;2.60;;;;;;;;;;5133996;27;20204;-57
2022/08/10 02:06:32;;;;;;;3.93;2.30;;;;;;;;;;5134234;27;20221;-57
2022/08/10 02:09:00;;;;;;;4.47;2.63;;;;;;;;;;5134544;27;20552;-57
2022/08/10 02:11:29;;;;;;;3.70;2.27;;;;;;;;;;5134494;27;20199;-57
2022/08/10 02:13:56;;;;;;;2.63;2.43;;;;;;;;;;5134464;27;20285;-57
2022/08/10 02:16:23;;;;;;;2.53;2.33;;;;;;;;;;5134490;27;20201;-57
2022/08/10 02:18:49;;;;;;;2.63;2.30;;;;;;;;;;5134363;27;20250;-57
2022/08/10 02:21:15;;;;;;;2.43;2.13;;;;;;;;;;5134614;27;20212;-57
2022/08/10 02:23:43;;;;;;;3.33;2.27;;;;;;;;;;5134102;27;20194;-56
2022/08/10 02:26:10;;;;;;;2.90;2.30;;;;;;;;;;5134389;27;20197;-57
2022/08/10 02:28:38;;;;;;;3.43;2.37;;;;;;;;;;5133955;27;20193;-57
2022/08/10 02:31:06;;;;;;;3.30;2.50;;;;;;;;;;5134126;27;20614;-57
2022/08/10 02:33:33;;;;;;;2.97;2.20;;;;;;;;;;5134089;27;20193;-57
2022/08/10 02:36:00;;;;;;;3.80;2.33;;;;;;;;;;5134086;27;20202;-57
2022/08/10 02:38:31;;;;;;;3.17;2.40;;;;;;;;;;5133685;27;20236;-57
2022/08/10 02:41:01;;;;;;;3.10;2.40;;;;;;;;;;5134091;27;20193;-57
2022/08/10 02:43:29;;;;;;;3.50;2.23;;;;;;;;;;5133796;27;20220;-57
2022/08/10 02:45:59;;;;;;;2.47;2.27;;;;;;;;;;5133715;27;20217;-57
2022/08/10 02:48:31;;;;;;;3.30;3.00;;;;;;;;;;5133654;27;20213;-57
2022/08/10 02:50:59;;;;;;;4.50;2.80;;;;;;;;;;5133781;27;20214;-57
2022/08/10 02:53:28;;;;;;;2.80;2.40;;;;;;;;;;5133474;27;20240;-57
2022/08/10 02:55:57;;;;;;;3.30;2.60;;;;;;;;;;5133542;27;20675;-57
2022/08/10 02:58:27;;;;;;;2.87;2.60;;;;;;;;;;5133398;27;20229;-57
2022/08/10 03:00:55;;;;;;;8.13;2.70;;;;;;;;;;5133473;27;20197;-57
2022/08/10 03:03:23;;;;;;;5.87;2.67;;;;;;;;;;5133380;27;20193;-57
2022/08/10 03:05:50;;;;;;;3.60;2.67;;;;;;;;;;5133306;27;20265;-57
2022/08/10 03:08:18;;;;;;;2.53;2.33;;;;;;;;;;5133279;27;20225;-57
2022/08/10 03:10:44;;;;;;;5.97;2.80;;;;;;;;;;5133355;27;20278;-57
2022/08/10 03:13:11;;;;;;;4.40;3.00;;;;;;;;;;5133309;27;20557;-57
2022/08/10 03:15:39;;;;;;;2.73;2.53;;;;;;;;;;5132865;27;20659;-56
2022/08/10 03:18:06;;;;;;;4.10;2.90;;;;;;;;;;5133105;27;20266;-57
2022/08/10 03:20:35;;;;;;;6.10;2.87;;;;;;;;;;5133390;27;20198;-57
2022/08/10 03:23:01;;;;;;;4.93;2.67;;;;;;;;;;5133302;27;20197;-57
2022/08/10 03:25:27;;;;;;;3.87;2.77;;;;;;;;;;5132994;27;20200;-57
2022/08/10 03:27:54;;;;;;;3.43;2.50;;;;;;;;;;5132957;27;20690;-57
2022/08/10 03:30:20;;;;;;;3.37;2.90;;;;;;;;;;5132962;27;20193;-57
2022/08/10 03:32:48;;;;;;;4.27;2.80;;;;;;;;;;5132997;27;20197;-57
2022/08/10 03:35:15;;;;;;;2.83;2.63;;;;;;;;;;5132959;27;20655;-57
2022/08/10 03:37:41;;;;;;;3.17;2.67;;;;;;;;;;5132735;27;20253;-57
2022/08/10 03:40:07;;;;;;;3.40;2.73;;;;;;;;;;5132689;27;20228;-57
2022/08/10 03:42:35;;;;;;;3.83;2.60;;;;;;;;;;5132785;27;20205;-57
2022/08/10 03:45:02;;;;;;;4.03;3.07;;;;;;;;;;5132887;27;20271;-57
2022/08/10 03:47:29;;;;;;;4.17;2.73;;;;;;;;;;5132782;27;20296;-57
2022/08/10 03:49:57;;;;;;;5.87;2.87;;;;;;;;;;5132757;27;20565;-57
2022/08/10 03:52:24;;;;;;;3.73;3.00;;;;;;;;;;5132652;27;20676;-56
2022/08/10 03:54:51;;;;;;;4.13;2.53;;;;;;;;;;5132690;28;20296;-56
2022/08/10 03:57:17;;;;;;;5.20;2.67;;;;;;;;;;5132767;28;20237;-57
2022/08/10 03:59:43;;;;;;;3.17;2.87;;;;;;;;;;5132680;27;20201;-57
2022/08/10 04:02:10;;;;;;;4.37;2.83;;;;;;;;;;5132605;28;20201;-56
2022/08/10 04:04:36;;;;;;;3.67;3.20;;;;;;;;;;5132541;28;20205;-56
2022/08/10 04:07:03;;;;;;;4.43;3.40;;;;;;;;;;5132555;27;20642;-57
2022/08/10 04:09:30;;;;;;;4.83;3.00;;;;;;;;;;5132484;28;20204;-56
2022/08/10 04:11:56;;;;;;;3.13;2.83;;;;;;;;;;5132555;27;20242;-57
2022/08/10 04:14:22;;;;;;;2.97;2.77;;;;;;;;;;5132479;28;20201;-57
2022/08/10 04:16:48;;;;;;;3.57;2.83;;;;;;;;;;5132210;27;20560;-57
2022/08/10 04:19:16;;;;;;;6.17;3.57;;;;;;;;;;5132523;28;20208;-57
2022/08/10 04:21:43;;;;;;;4.27;3.17;;;;;;;;;;5132301;27;20193;-57
2022/08/10 04:24:15;;;;;;;6.30;3.17;;;;;;;;;;5132318;28;20284;-56
2022/08/10 04:26:41;;;;;;;4.03;3.10;;;;;;;;;;5132327;27;20302;-57
2022/08/10 04:29:07;;;;;;;3.77;3.13;;;;;;;;;;5135571;27;20222;-57
2022/08/10 04:31:34;;;;;;;4.00;3.30;;;;;;;;;;5136390;27;20277;-56
2022/08/10 04:34:00;;;;;;;3.73;3.30;;;;;;;;;;5136334;27;20617;-57
2022/08/10 04:36:28;;;;;;;4.27;3.70;;;;;;;;;;5135986;27;20654;-57
2022/08/10 04:38:54;;;;;;;3.40;3.10;;;;;;;;;;5136215;27;20202;-57
2022/08/10 04:41:22;;;;;;;4.97;3.30;;;;;;;;;;5136196;27;20201;-57
2022/08/10 04:43:48;;;;;;;3.43;2.90;;;;;;;;;;5136027;27;20201;-57
2022/08/10 04:46:14;;;;;;;3.30;3.00;;;;;;;;;;5136277;27;20197;-57
2022/08/10 04:48:40;;;;;;;3.43;2.80;;;;;;;;;;5135965;27;20193;-57
2022/08/10 04:51:06;;;;;;;3.63;3.30;;;;;;;;;;5136055;27;20189;-57
2022/08/10 04:53:32;;;;;;;4.77;3.20;;;;;;;;;;5135950;27;20284;-57
2022/08/10 04:55:58;;;;;;;6.47;3.27;;;;;;;;;;5136185;27;20220;-56
2022/08/10 04:58:26;;;;;;;3.67;3.20;;;;;;;;;;5135832;27;20244;-56
2022/08/10 05:00:52;;;;;;;4.43;3.13;;;;;;;;;;5135818;27;20644;-57
2022/08/10 05:03:18;;;;;;;6.87;3.60;;;;;;;;;;5135885;27;20666;-57
2022/08/10 05:05:44;;;;;;;3.53;3.20;;;;;;;;;;5135689;27;20209;-57
2022/08/10 05:08:10;;;;;;;3.60;3.00;;;;;;;;;;5135448;27;20240;-57
2022/08/10 05:10:36;;;;;;;3.53;3.23;;;;;;;;;;5135590;27;20632;-57
2022/08/10 05:13:02;;;;;;;3.23;3.00;;;;;;;;;;5135808;27;20194;-57
2022/08/10 05:15:30;;;;;;;3.70;2.87;;;;;;;;;;5135573;27;20193;-56
2022/08/10 05:17:56;;;;;;;4.27;3.27;;;;;;;;;;5135361;27;20634;-57
2022/08/10 05:20:22;;;;;;;5.90;3.13;;;;;;;;;;5135327;27;20194;-57
2022/08/10 05:22:48;;;;;;;6.20;3.40;;;;;;;;;;5135293;27;20209;-57
2022/08/10 05:25:15;;;;;;;4.13;3.37;;;;;;;;;;5135551;27;20193;-57
2022/08/10 05:27:41;;;;;;;5.53;3.37;;;;;;;;;;5135217;27;20270;-57
2022/08/10 05:30:08;;;;;;;4.80;3.20;;;;;;;;;;5135185;27;20223;-57
2022/08/10 05:32:36;;;;;;;5.10;3.13;;;;;;;;;;5134938;27;20199;-57
2022/08/10 05:35:02;;;;;;;3.33;2.93;;;;;;;;;;5135290;27;20294;-57
2022/08/10 05:37:30;;;;;;;2.93;2.60;;;;;;;;;;5135171;27;20259;-57
2022/08/10 05:39:56;;;;;;;4.27;2.70;;;;;;;;;;5134810;27;20604;-56
2022/08/10 05:42:23;;;;;;;4.67;2.80;;;;;;;;;;5135220;27;20201;-57
2022/08/10 05:44:49;;;;;;;3.03;2.77;;;;;;;;;;5134871;27;20714;-57
2022/08/10 05:47:15;;;;;;;2.80;2.60;;;;;;;;;;5134852;27;20226;-57
2022/08/10 05:49:42;;;;;;;7.70;3.30;;;;;;;;;;5134775;27;20191;-57
2022/08/10 05:52:08;;;;;;;5.40;3.03;;;;;;;;;;5134806;27;20572;-57
2022/08/10 05:54:34;;;;;;;3.33;3.03;;;;;;;;;;5134590;27;20197;-57
2022/08/10 05:57:01;;;;;;;6.00;2.90;;;;;;;;;;5134867;27;20253;-57
2022/08/10 05:59:28;;;;;;;5.20;3.10;;;;;;;;;;5134686;27;20192;-57
2022/08/10 06:01:54;;;;;;;3.37;2.73;;;;;;;;;;5134582;27;20928;-57
2022/08/10 06:04:24;;;;;;;3.67;2.80;;;;;;;;;;5134581;27;20213;-57
2022/08/10 06:06:52;;;;;;;4.20;2.67;;;;;;;;;;5134279;27;20232;-57
2022/08/10 06:09:19;;;;;;;4.50;2.67;;;;;;;;;;5134343;27;20669;-57
2022/08/10 06:11:45;;;;;;;5.87;2.63;;;;;;;;;;5134488;27;20195;-57
2022/08/10 06:16:59;;;;;;;5.63;2.80;;;;;;;;;;5134428;27;20644;-58
2022/08/10 06:19:26;;;;;;;5.73;2.93;;;;;;;;;;5134223;27;20194;-59
2022/08/10 06:21:56;;;;;;;4.63;2.63;;;;;;;;;;5134071;27;20208;-56
2022/08/10 06:24:23;;;;;;;3.83;2.50;;;;;;;;;;5134086;27;20682;-57
2022/08/10 06:26:49;;;;;;;3.47;2.70;;;;;;;;;;5133977;27;20215;-57
2022/08/10 06:29:16;;;;;;;2.77;2.43;;;;;;;;;;5134160;27;20280;-57
2022/08/10 06:31:44;;;;;;;4.97;2.80;;;;;;;;;;5133850;27;20242;-57
2022/08/10 06:34:12;;;;;;;4.07;2.70;;;;;;;;;;5134015;27;20197;-58
2022/08/10 06:36:40;;;;;;;6.00;2.60;;;;;;;;;;5133857;27;20201;-58
2022/08/10 06:39:08;;;;;;;4.17;2.27;;;;;;;;;;5133798;27;20667;-57
2022/08/10 06:41:38;;;;;;;4.63;2.63;;;;;;;;;;5133780;27;20216;-58
2022/08/10 06:44:06;;;;;;;2.70;2.50;;;;;;;;;;5133544;27;20209;-58
2022/08/10 06:46:34;;;;;;;4.53;2.47;;;;;;;;;;5133657;27;20190;-58
2022/08/10 06:49:02;;;;;;;2.47;2.27;;;;;;;;;;5134144;27;20292;-58
2022/08/10 06:51:29;;;;;;;7.23;2.77;;;;;;;;;;5133179;27;20235;-58
2022/08/10 06:53:56;;;;;;;3.00;2.10;;;;;;;;;;5133570;27;20272;-58
2022/08/10 06:56:24;;;;;;;6.83;2.20;;;;;;;;;;5133596;27;20188;-58
2022/08/10 06:58:53;;;;;;;3.00;2.50;;;;;;;;;;5133552;27;20225;-58
2022/08/10 07:01:22;;;;;;;5.70;2.33;;;;;;;;;;5133519;27;20197;-58
2022/08/10 07:03:53;;;;;;;4.33;2.33;;;;;;;;;;5133383;27;20209;-58
2022/08/10 07:06:20;;;;;;;6.13;2.20;;;;;;;;;;5133475;27;20272;-58
2022/08/10 07:08:46;;;;;;;3.60;2.17;;;;;;;;;;5133206;27;20227;-58
2022/08/10 07:11:14;;;;;;;5.93;2.53;;;;;;;;;;5133357;27;20194;-58
2022/08/10 07:13:43;;;;;;;8.23;2.40;;;;;;;;;;5133217;27;20197;-58
2022/08/10 07:16:10;;;;;;;4.57;2.20;;;;;;;;;;5133268;27;20199;-59
2022/08/10 07:18:36;;;;;;;3.30;2.30;;;;;;;;;;5133005;27;20262;-58
2022/08/10 07:21:03;;;;;;;4.60;2.50;;;;;;;;;;5133164;27;20553;-58
2022/08/10 07:23:29;;;;;;;6.83;2.20;;;;;;;;;;5133318;27;20262;-58
2022/08/10 07:25:56;;;;;;;3.73;2.23;;;;;;;;;;5132952;27;20229;-58
2022/08/10 07:28:22;;;;;;;5.67;2.30;;;;;;;;;;5132873;27;20644;-58
2022/08/10 07:30:51;;;;;;;3.53;2.20;;;;;;;;;;5132927;27;20538;-58
2022/08/10 07:33:18;;;;;;;2.80;2.10;;;;;;;;;;5133050;27;20203;-58
2022/08/10 07:35:45;;;;;;;7.20;2.40;;;;;;;;;;5132959;27;20293;-58
2022/08/10 07:38:12;;;;;;;2.93;2.00;;;;;;;;;;5132796;27;20595;-58
2022/08/10 07:40:40;;;;;;;4.43;2.10;;;;;;;;;;5132736;27;20198;-58
2022/08/10 07:43:06;;;;;;;5.03;2.30;;;;;;;;;;5132761;27;20712;-58
2022/08/10 07:45:33;;;;;;;5.47;2.20;;;;;;;;;;5132733;27;20222;-58
2022/08/10 07:48:01;;;;;;;4.03;2.30;;;;;;;;;;5132932;27;20192;-58
2022/08/10 07:50:28;;;;;;;6.47;2.57;;;;;;;;;;5132678;27;20200;-58
2022/08/10 07:52:57;;;;;;;6.73;2.60;;;;;;;;;;5132514;27;20717;-58
2022/08/10 07:55:23;;;;;;;5.63;2.40;;;;;;;;;;5132903;27;20196;-58
2022/08/10 07:57:51;;;;;;;3.87;2.20;;;;;;;;;;5132441;28;20220;-59
2022/08/10 08:00:19;;;;;;;4.17;2.10;;;;;;;;;;5132716;27;20240;-58
2022/08/10 08:02:47;;;;;;;4.30;2.23;;;;;;;;;;5133515;27;20240;-58
2022/08/10 08:05:15;;;;;;;2.60;2.00;;;;;;;;;;5137051;27;20234;-58
2022/08/10 08:07:42;;;;;;;4.63;2.50;;;;;;;;;;5136411;27;20233;-59
2022/08/10 08:10:10;;;;;;;5.30;2.67;;;;;;;;;;5136893;27;20193;-59
2022/08/10 08:12:37;;;;;;;4.23;2.30;;;;;;;;;;5136700;27;20612;-58
2022/08/10 08:15:03;;;;;;;4.10;2.40;;;;;;;;;;5136903;27;20235;-58
2022/08/10 08:17:30;;;;;;;7.33;2.27;;;;;;;;;;5136634;27;20687;-58
2022/08/10 08:19:56;;;;;;;5.17;2.50;;;;;;;;;;5136584;27;20290;-58
2022/08/10 08:22:24;;;;;;;2.93;2.00;;;;;;;;;;5136514;27;20193;-59
2022/08/10 08:24:54;;;;;;;2.63;2.07;;;;;;;;;;5136413;27;20817;-59
2022/08/10 08:27:21;;;;;;;2.40;2.20;;;;;;;;;;5136536;27;20190;-58
2022/08/10 08:29:48;;;;;;;5.40;2.23;;;;;;;;;;5136677;27;20200;-59
2022/08/10 08:32:16;;;;;;;2.50;2.03;;;;;;;;;;5136475;27;20610;-58
2022/08/10 08:34:43;;;;;;;3.97;2.00;;;;;;;;;;5136279;27;20569;-59
2022/08/10 08:37:10;;;;;;;3.53;2.10;;;;;;;;;;5136256;27;20218;-59
2022/08/10 08:39:39;;;;;;;4.90;2.03;;;;;;;;;;5136381;27;20258;-58
2022/08/10 08:42:20;;;;;;;5.87;2.13;;;;;;;;;;5136200;27;20628;-58
2022/08/10 08:44:54;;;;;;;3.13;1.90;;;;;;;;;;5132246;27;20693;-58
2022/08/10 08:47:29;;;;;;;4.23;2.13;;;;;;;;;;5136123;27;20199;-58
2022/08/10 08:50:14;;;;;;;3.93;2.23;;;;;;;;;;5135957;27;20243;-58
2022/08/10 08:52:48;;;;;;;4.00;1.80;;;;;;;;;;5135965;27;20192;-59
2022/08/10 08:55:22;;;;;;;2.87;2.00;;;;;;;;;;5136262;27;20196;-59
2022/08/10 08:57:50;;;;;;;4.27;1.80;;;;;;;;;;5135815;27;20215;-58
2022/08/10 09:00:18;;;;;;;4.03;2.10;;;;;;;;;;5136029;27;20200;-58
2022/08/10 09:02:54;;;;;;;5.77;2.13;;;;;;;;;;5135863;27;20205;-58
2022/08/10 09:05:28;;;;;;;2.97;2.20;;;;;;;;;;5135792;27;20664;-59
2022/08/10 09:08:16;;;;;;;3.60;2.17;;;;;;;;;;5135424;27;20241;-59
2022/08/10 09:10:50;;;;;;;2.47;2.23;;;;;;;;;;5135752;27;20211;-59
2022/08/10 09:13:19;;;;;;;3.83;1.90;;;;;;;;;;5135390;27;20207;-59
2022/08/10 09:15:48;;;;;;;6.33;2.10;;;;;;;;;;5135646;27;20211;-59
2022/08/10 09:18:20;;;;;;;6.17;2.20;;;;;;;;;;5135566;27;20220;-59
2022/08/10 09:20:47;;;;;;;3.47;2.20;;;;;;;;;;5135469;27;20205;-59
2022/08/10 09:23:18;;;;;;;3.80;2.20;;;;;;;;;;5135409;27;20606;-59
2022/08/10 09:25:51;;;;;;;3.77;2.10;;;;;;;;;;5135375;27;20531;-59
2022/08/10 09:28:21;;;;;;;3.80;2.33;;;;;;;;;;5135554;27;20282;-59
2022/08/10 09:30:51;;;;;;;4.47;2.20;;;;;;;;;;5135306;27;20551;-59
2022/08/10 09:33:20;;;;;;;10.97;1.90;;;;;;;;;;5135335;27;20191;-59
2022/08/10 09:35:51;;;;;;;3.70;2.00;;;;;;;;;;5135200;27;20201;-59
2022/08/10 09:38:21;;;;;;;2.53;1.90;;;;;;;;;;5135297;27;20272;-58
2022/08/10 09:40:54;;;;;;;3.07;2.00;;;;;;;;;;5135160;27;20247;-59
2022/08/10 09:43:25;;;;;;;2.60;2.07;;;;;;;;;;5135087;27;20194;-59
2022/08/10 09:45:55;;;;;;;4.53;2.37;;;;;;;;;;5134776;27;20247;-59
2022/08/10 09:48:25;;;;;;;4.40;1.70;;;;;;;;;;5134952;27;20218;-59
2022/08/10 09:50:55;;;;;;;6.03;2.40;;;;;;;;;;5134720;27;20200;-60
2022/08/10 09:53:24;;;;;;;5.13;1.90;;;;;;;;;;5134843;27;20600;-59
2022/08/10 09:55:57;;;;;;;3.60;2.17;;;;;;;;;;5134647;27;20196;-59
2022/08/10 09:58:37;;;;;;;4.43;2.10;;;;;;;;;;5134617;27;20588;-59
2022/08/10 10:01:09;;;;;;;5.53;2.10;;;;;;;;;;5134736;27;20733;-59
2022/08/10 10:03:41;;;;;;;3.80;1.77;;;;;;;;;;5134562;27;20575;-59
2022/08/10 10:06:12;;;;;;;5.73;1.73;;;;;;;;;;5134688;27;20667;-59
2022/08/10 10:08:40;;;;;;;3.77;1.80;;;;;;;;;;5134233;27;20331;-59
2022/08/10 10:11:11;;;;;;;2.47;1.70;;;;;;;;;;5134427;27;20198;-59
2022/08/10 10:13:42;;;;;;;4.50;1.83;;;;;;;;;;5134265;27;20209;-59
2022/08/10 10:16:13;;;;;;;1.70;1.60;;;;;;;;;;5134379;27;20201;-59
2022/08/10 10:18:41;;;;;;;2.57;1.60;;;;;;;;;;5134462;27;20355;-59
2022/08/10 10:21:10;;;;;;;4.10;1.80;;;;;;;;;;5134372;27;20200;-59
2022/08/10 10:23:46;;;;;;;4.60;1.73;;;;;;;;;;5133980;27;20194;-59
2022/08/10 10:26:19;;;;;;;5.30;2.10;;;;;;;;;;5133453;27;20217;-59
2022/08/10 10:28:52;;;;;;;4.30;1.73;;;;;;;;;;5134181;27;20200;-58
2022/08/10 10:31:24;;;;;;;3.23;1.50;;;;;;;;;;5134241;27;20226;-59
2022/08/10 10:33:53;;;;;;;4.77;1.80;;;;;;;;;;5133923;27;20198;-59
2022/08/10 10:36:20;;;;;;;2.30;1.53;;;;;;;;;;5134092;27;20242;-60
2022/08/10 10:38:46;;;;;;;3.13;1.80;;;;;;;;;;5133767;27;20228;-60
2022/08/10 10:41:19;;;;;;;3.57;1.70;;;;;;;;;;5134153;27;20609;-58
2022/08/10 10:43:50;;;;;;;4.77;2.10;;;;;;;;;;5133903;27;20204;-60
2022/08/10 10:46:22;;;;;;;4.13;1.77;;;;;;;;;;5134123;27;20625;-60
2022/08/10 10:48:54;;;;;;;6.27;2.10;;;;;;;;;;5133827;27;20912;-60
2022/08/10 10:51:25;;;;;;;5.67;2.07;;;;;;;;;;5115323;27;20190;-60
2022/08/10 10:53:58;;;;;;;7.07;2.10;;;;;;;;;;5133622;27;20204;-59
2022/08/10 10:56:27;;;;;;;1.90;1.50;;;;;;;;;;5133676;27;20227;-59
2022/08/10 10:58:58;;;;;;;8.97;1.93;;;;;;;;;;5133416;27;20216;-59
2022/08/10 11:01:31;;;;;;;4.90;1.93;;;;;;;;;;5133585;27;20257;-60
2022/08/10 11:04:03;;;;;;;2.97;1.60;;;;;;;;;;5133466;27;20342;-58
2022/08/10 11:06:37;;;;;;;2.83;1.60;;;;;;;;;;5133583;27;20196;-58
2022/08/10 11:09:05;;;;;;;3.20;1.70;;;;;;;;;;5133505;27;20205;-59
2022/08/10 11:11:35;;;;;;;5.30;2.00;;;;;;;;;;5133529;27;20607;-59
2022/08/10 11:14:04;;;;;;;3.77;1.73;;;;;;;;;;5133423;27;20653;-60
2022/08/10 11:16:36;;;;;;;5.30;1.63;;;;;;;;;;5133358;27;20206;-59
2022/08/10 11:19:07;;;;;;;4.13;1.90;;;;;;;;;;5133330;27;20284;-59
2022/08/10 11:21:38;;;;;;;4.57;1.83;;;;;;;;;;5133199;27;20241;-59
2022/08/10 11:24:07;;;;;;;6.97;1.80;;;;;;;;;;5133218;27;20193;-59
2022/08/10 11:26:38;;;;;;;2.67;1.70;;;;;;;;;;5133043;27;20253;-60
2022/08/10 11:29:07;;;;;;;4.03;1.80;;;;;;;;;;5133084;27;20236;-59
2022/08/10 11:31:34;;;;;;;6.50;2.10;;;;;;;;;;5132944;27;20650;-59
2022/08/10 11:34:03;;;;;;;2.87;1.77;;;;;;;;;;5132995;27;20749;-59
2022/08/10 11:36:33;;;;;;;2.53;1.53;;;;;;;;;;5132865;27;20212;-59
2022/08/10 11:39:02;;;;;;;3.60;1.47;;;;;;;;;;5132657;27;20219;-59
2022/08/10 11:41:32;;;;;;;3.67;1.40;;;;;;;;;;5132866;27;20195;-59
2022/08/10 11:44:04;;;;;;;2.83;1.50;;;;;;;;;;5132610;27;20198;-59
2022/08/10 11:46:33;;;;;;;3.63;1.80;;;;;;;;;;5132903;27;20220;-59
2022/08/10 11:49:03;;;;;;;2.43;1.50;;;;;;;;;;5132603;27;20550;-59
2022/08/10 11:51:34;;;;;;;1.77;1.50;;;;;;;;;;5132868;27;20720;-59
2022/08/10 11:54:04;;;;;;;2.13;1.40;;;;;;;;;;5133000;27;20202;-59
2022/08/10 11:56:32;;;;;;;2.00;1.67;;;;;;;;;;5132734;27;20230;-59
2022/08/10 12:01:46;;;;;;;3.03;1.53;;;;;;;;;;5132737;28;20234;-59
2022/08/10 12:04:13;;;;;;;2.13;1.80;;;;;;;;;;5132684;28;20260;-60
2022/08/10 12:06:41;;;;;;;3.73;1.60;;;;;;;;;;5132222;27;20222;-59
2022/08/10 12:09:08;;;;;;;3.00;1.60;;;;;;;;;;5132630;28;20192;-59
2022/08/10 12:11:34;;;;;;;3.63;1.83;;;;;;;;;;5132515;28;20200;-59
2022/08/10 12:14:03;;;;;;;3.93;1.83;;;;;;;;;;5132519;28;20197;-59
2022/08/10 12:16:31;;;;;;;3.83;1.60;;;;;;;;;;5132645;28;20197;-59
2022/08/10 12:19:02;;;;;;;2.83;1.80;;;;;;;;;;5132429;28;20248;-59
2022/08/10 12:21:32;;;;;;;4.73;1.87;;;;;;;;;;5132462;28;20709;-59
2022/08/10 12:24:01;;;;;;;2.37;1.60;;;;;;;;;;5132410;28;20631;-60
2022/08/10 12:26:28;;;;;;;2.23;1.60;;;;;;;;;;5132493;28;20197;-59
2022/08/10 12:28:57;;;;;;;3.03;1.53;;;;;;;;;;5132293;27;20228;-59
2022/08/10 12:31:26;;;;;;;5.03;1.80;;;;;;;;;;5132332;28;20633;-59
2022/08/10 12:34:00;;;;;;;5.40;1.67;;;;;;;;;;5132210;27;20197;-59
2022/08/10 12:36:28;;;;;;;4.50;1.57;;;;;;;;;;5132211;28;20208;-59
2022/08/10 12:39:01;;;;;;;2.80;1.70;;;;;;;;;;5132056;27;20227;-59
2022/08/10 12:41:30;;;;;;;2.30;1.53;;;;;;;;;;5132269;28;20196;-59
2022/08/10 12:43:59;;;;;;;2.17;1.77;;;;;;;;;;5131952;28;20206;-59
2022/08/10 12:46:28;;;;;;;2.13;1.50;;;;;;;;;;5132033;27;20670;-60
2022/08/10 12:48:56;;;;;;;1.53;1.40;;;;;;;;;;5133087;27;20189;-60
2022/08/10 12:51:26;;;;;;;4.93;1.70;;;;;;;;;;5136038;27;20238;-59
2022/08/10 12:53:56;;;;;;;4.20;1.77;;;;;;;;;;5135893;27;20226;-60
2022/08/10 12:56:24;;;;;;;2.20;1.57;;;;;;;;;;5135959;27;20211;-60
2022/08/10 12:58:51;;;;;;;2.03;1.63;;;;;;;;;;5135612;27;20691;-60
2022/08/10 13:01:18;;;;;;;7.97;2.33;;;;;;;;;;5135966;27;20551;-59
2022/08/10 13:03:46;;;;;;;3.03;1.73;;;;;;;;;;5135647;27;20287;-60
2022/08/10 13:06:13;;;;;;;2.63;1.70;;;;;;;;;;5135897;27;20201;-59
2022/08/10 13:11:27;;;;;;;2.17;1.87;;;;;;;;;;5135689;27;20891;-60
2022/08/10 13:13:55;;;;;;;2.60;1.60;;;;;;;;;;5135097;27;20626;-60
2022/08/10 13:16:23;;;;;;;2.67;1.50;;;;;;;;;;5135418;27;20199;-60
2022/08/10 13:18:50;;;;;;;3.80;1.83;;;;;;;;;;5135425;27;20220;-61
2022/08/10 13:21:17;;;;;;;3.33;1.60;;;;;;;;;;5135532;27;20208;-60
2022/08/10 13:23:47;;;;;;;3.70;1.60;;;;;;;;;;5135442;27;20197;-60
2022/08/10 13:26:14;;;;;;;3.73;1.80;;;;;;;;;;5135381;27;20203;-60
2022/08/10 13:28:46;;;;;;;2.47;1.57;;;;;;;;;;5135269;27;20200;-60
2022/08/10 13:31:13;;;;;;;2.17;1.60;;;;;;;;;;5135410;27;20203;-59
2022/08/10 13:33:43;;;;;;;4.27;1.80;;;;;;;;;;5135140;27;20193;-60
2022/08/10 13:36:10;;;;;;;4.20;1.70;;;;;;;;;;5135271;27;20243;-60
2022/08/10 13:38:38;;;;;;;1.87;1.50;;;;;;;;;;5134979;27;20698;-60
2022/08/10 13:41:04;;;;;;;2.17;1.70;;;;;;;;;;5135211;27;20197;-60
2022/08/10 13:43:30;;;;;;;4.03;1.47;;;;;;;;;;5135099;27;20212;-60
2022/08/10 13:45:57;;;;;;;3.50;1.60;;;;;;;;;;5134836;27;20217;-60
2022/08/10 13:48:24;;;;;;;3.60;1.77;;;;;;;;;;5135060;27;20193;-60
2022/08/10 13:50:52;;;;;;;3.57;1.60;;;;;;;;;;5134806;27;20599;-60
2022/08/10 13:53:18;;;;;;;3.13;1.50;;;;;;;;;;5134943;27;20197;-60
2022/08/10 13:55:45;;;;;;;2.70;1.80;;;;;;;;;;5135065;27;20292;-60
2022/08/10 13:58:12;;;;;;;5.07;1.87;;;;;;;;;;5134704;27;20229;-60
2022/08/10 14:00:39;;;;;;;3.73;2.20;;;;;;;;;;5133688;27;20203;-60
2022/08/10 14:03:09;;;;;;;3.03;1.60;;;;;;;;;;5134742;27;20197;-60
2022/08/10 14:05:39;;;;;;;3.73;1.70;;;;;;;;;;5134639;27;20207;-60
2022/08/10 14:08:09;;;;;;;4.17;1.50;;;;;;;;;;5134269;27;20773;-60
2022/08/10 14:10:37;;;;;;;3.03;1.60;;;;;;;;;;5134697;27;20203;-61
2022/08/10 14:13:04;;;;;;;2.33;1.87;;;;;;;;;;5134452;27;20207;-59
2022/08/10 14:15:33;;;;;;;2.90;1.40;;;;;;;;;;5134498;27;20603;-60
2022/08/10 14:18:00;;;;;;;2.33;1.73;;;;;;;;;;5134286;27;20231;-60
2022/08/10 14:20:28;;;;;;;4.27;1.60;;;;;;;;;;5134427;27;20212;-59
2022/08/10 14:22:59;;;;;;;2.60;1.67;;;;;;;;;;5134455;27;20228;-59
2022/08/10 14:25:25;;;;;;;1.60;1.40;;;;;;;;;;5134260;27;20739;-60
2022/08/10 14:27:51;;;;;;;2.17;1.63;;;;;;;;;;5134125;27;20280;-59
2022/08/10 14:30:17;;;;;;;2.03;1.57;;;;;;;;;;5134491;27;20274;-59
2022/08/10 14:32:47;;;;;;;3.13;1.40;;;;;;;;;;5133945;27;20232;-60
2022/08/10 14:35:14;;;;;;;4.70;1.50;;;;;;;;;;5134223;27;20257;-60
2022/08/10 14:37:44;;;;;;;2.70;1.60;;;;;;;;;;5133814;27;20224;-60
2022/08/10 14:40:12;;;;;;;3.50;1.50;;;;;;;;;;5134013;27;20201;-60
2022/08/10 14:42:44;;;;;;;2.73;1.50;;;;;;;;;;5133840;27;20196;-60
2022/08/10 14:45:12;;;;;;;2.53;1.73;;;;;;;;;;5133877;27;20248;-60
2022/08/10 14:47:40;;;;;;;4.00;1.70;;;;;;;;;;5133749;27;20196;-60
2022/08/10 14:50:07;;;;;;;2.10;1.60;;;;;;;;;;5133808;27;20193;-60
2022/08/10 14:52:37;;;;;;;2.73;1.50;;;;;;;;;;5133663;27;20207;-60
2022/08/10 14:55:06;;;;;;;4.93;1.57;;;;;;;;;;5133671;27;20203;-60
2022/08/10 14:57:33;;;;;;;3.30;1.70;;;;;;;;;;5133582;27;20202;-60